Time,TemperatureF,DewpointF,PressureIn,WindDirection,WindDirectionDegrees,WindSpeedMPH,WindSpeedGustMPH,Humidity,HourlyPrecipIn,Conditions,Clouds,dailyrainin,SoftwareType,DateUTC
2013-03-22 00:08:00,29.5,27.5,29.54,NE,41,0.0,0.0,92,0.00,,---,0.09,VWS V14.00,2013-03-22 04:08:00,
2013-03-22 00:13:00,29.5,27.7,29.54,NE,41,0.0,0.0,93,0.00,,---,0.09,VWS V14.00,2013-03-22 04:13:00,
2013-03-22 00:18:00,29.5,27.5,29.54,NE,41,0.0,0.0,92,0.00,,---,0.09,VWS V14.00,2013-03-22 04:18:00,
2013-03-22 00:23:00,29.5,27.5,29.54,NE,41,0.0,0.0,92,0.00,,---,0.09,VWS V14.00,2013-03-22 04:23:00,
2013-03-22 00:28:00,29.5,27.5,29.54,NE,41,0.0,0.0,92,0.00,,---,0.09,VWS V14.00,2013-03-22 04:28:00,
2013-03-22 00:33:00,29.5,26.9,29.55,NE,37,0.0,1.0,90,0.00,,---,0.09,VWS V14.00,2013-03-22 04:33:00,
2013-03-22 00:38:00,29.7,26.9,29.55,NE,38,0.0,1.0,89,0.00,,---,0.09,VWS V14.00,2013-03-22 04:38:00,
2013-03-22 00:43:00,29.7,26.6,29.55,NE,37,0.0,1.0,88,0.00,,---,0.09,VWS V14.00,2013-03-22 04:43:00,
2013-03-22 00:48:00,29.7,25.8,29.55,NE,38,0.0,1.0,85,0.00,,---,0.09,VWS V14.00,2013-03-22 04:48:00,
2013-03-22 00:53:00,29.7,25.2,29.55,NE,37,0.0,1.0,83,0.00,,---,0.09,VWS V14.00,2013-03-22 04:53:00,
2013-03-22 00:59:00,29.8,24.7,29.55,NE,37,0.0,1.0,81,0.00,,---,0.09,VWS V14.00,2013-03-22 04:59:00,
2013-03-22 01:04:00,29.8,23.8,29.55,NE,37,0.0,0.0,78,0.00,,---,0.00,VWS V14.00,2013-03-22 05:04:00,
2013-03-22 01:09:00,29.8,23.2,29.55,NE,37,0.0,1.0,76,0.00,,---,0.00,VWS V14.00,2013-03-22 05:09:00,
2013-03-22 01:14:00,29.8,22.9,29.55,NE,37,0.0,1.0,75,0.00,,---,0.00,VWS V14.00,2013-03-22 05:14:00,
2013-03-22 01:19:00,29.8,22.2,29.55,NE,37,0.0,1.0,73,0.00,,---,0.00,VWS V14.00,2013-03-22 05:19:00,
2013-03-22 01:24:00,29.8,21.6,29.55,NE,37,0.0,1.0,71,0.00,,---,0.00,VWS V14.00,2013-03-22 05:24:00,
2013-03-22 01:29:00,30.0,20.7,29.55,NE,37,0.0,1.0,68,0.00,,---,0.00,VWS V14.00,2013-03-22 05:29:00,
2013-03-22 01:34:00,30.0,20.4,29.55,NE,40,0.0,1.0,67,0.00,,---,0.00,VWS V14.00,2013-03-22 05:34:00,
2013-03-22 01:39:00,30.0,19.7,29.55,North,353,0.0,3.0,65,0.00,,---,0.00,VWS V14.00,2013-03-22 05:39:00,
2013-03-22 01:44:00,30.1,20.1,29.55,North,353,0.0,3.0,66,0.00,,---,0.00,VWS V14.00,2013-03-22 05:44:00,
2013-03-22 01:49:00,30.1,18.7,29.55,NNW,342,0.0,3.0,62,0.00,,---,0.00,VWS V14.00,2013-03-22 05:49:00,
2013-03-22 01:54:00,30.1,19.8,29.55,NNW,342,0.0,3.0,65,0.00,,---,0.00,VWS V14.00,2013-03-22 05:54:00,
2013-03-22 01:59:00,30.1,18.3,29.55,North,350,0.0,3.0,61,0.00,,---,0.00,VWS V14.00,2013-03-22 05:59:00,
2013-03-22 02:04:00,30.3,18.1,29.55,West,274,0.0,1.0,60,0.00,,---,0.00,VWS V14.00,2013-03-22 06:04:00,
2013-03-22 02:09:00,30.3,18.1,29.55,North,349,0.0,3.0,60,0.00,,---,0.00,VWS V14.00,2013-03-22 06:09:00,
2013-03-22 02:14:00,30.3,18.5,29.55,NW,316,0.0,3.0,61,0.00,,---,0.00,VWS V14.00,2013-03-22 06:14:00,
2013-03-22 02:19:00,30.3,18.9,29.55,NW,318,0.0,3.0,62,0.00,,---,0.00,VWS V14.00,2013-03-22 06:19:00,
2013-03-22 02:24:00,30.1,18.7,29.55,NW,318,0.0,3.0,62,0.00,,---,0.00,VWS V14.00,2013-03-22 06:24:00,
2013-03-22 02:29:00,30.1,18.7,29.55,NW,318,0.0,3.0,62,0.00,,---,0.00,VWS V14.00,2013-03-22 06:29:00,
2013-03-22 02:34:00,30.1,18.3,29.55,WNW,289,1.0,4.0,61,0.00,,---,0.00,VWS V14.00,2013-03-22 06:34:00,
2013-03-22 02:39:00,30.3,18.1,29.55,NNW,343,0.0,10.0,60,0.00,,---,0.00,VWS V14.00,2013-03-22 06:39:00,
2013-03-22 02:44:00,30.3,18.5,29.55,North,349,0.0,10.0,61,0.00,,---,0.00,VWS V14.00,2013-03-22 06:44:00,
2013-03-22 02:49:00,30.1,19.0,29.55,NW,309,0.0,10.0,63,0.00,,---,0.00,VWS V14.00,2013-03-22 06:49:00,
2013-03-22 02:54:00,30.1,18.7,29.55,West,270,0.0,10.0,62,0.00,,---,0.00,VWS V14.00,2013-03-22 06:54:00,
2013-03-22 02:59:00,30.1,18.7,29.55,NW,316,0.0,10.0,62,0.00,,---,0.00,VWS V14.00,2013-03-22 06:59:00,
2013-03-22 03:04:00,30.0,18.2,29.55,WNW,294,0.0,2.0,61,0.00,,---,0.00,VWS V14.00,2013-03-22 07:04:00,
2013-03-22 03:09:00,30.0,19.3,29.55,WNW,294,0.0,2.0,64,0.00,,---,0.00,VWS V14.00,2013-03-22 07:09:00,
2013-03-22 03:14:00,30.0,18.6,29.55,NW,315,0.0,3.0,62,0.00,,---,0.00,VWS V14.00,2013-03-22 07:14:00,
2013-03-22 03:19:00,30.0,19.0,29.55,NW,316,1.0,3.0,63,0.00,,---,0.00,VWS V14.00,2013-03-22 07:19:00,
2013-03-22 03:24:00,29.8,18.8,29.55,SSW,198,0.0,3.0,63,0.00,,---,0.00,VWS V14.00,2013-03-22 07:24:00,
2013-03-22 03:29:00,29.8,18.8,29.55,NNW,347,0.0,3.0,63,0.00,,---,0.00,VWS V14.00,2013-03-22 07:29:00,
2013-03-22 03:34:00,29.8,18.4,29.55,NNW,347,0.0,2.0,62,0.00,,---,0.00,VWS V14.00,2013-03-22 07:34:00,
2013-03-22 03:39:00,29.8,18.4,29.55,NNW,335,0.0,2.0,62,0.00,,---,0.00,VWS V14.00,2013-03-22 07:39:00,
2013-03-22 03:44:00,29.8,18.4,29.55,NW,323,0.0,3.0,62,0.00,,---,0.00,VWS V14.00,2013-03-22 07:44:00,
2013-03-22 03:49:00,29.7,18.7,29.54,North,357,0.0,3.0,63,0.00,,---,0.00,VWS V14.00,2013-03-22 07:49:00,
2013-03-22 03:54:00,29.7,18.7,29.54,North,357,0.0,3.0,63,0.00,,---,0.00,VWS V14.00,2013-03-22 07:54:00,
2013-03-22 03:59:00,29.7,18.3,29.54,North,357,0.0,3.0,62,0.00,,---,0.00,VWS V14.00,2013-03-22 07:59:00,
2013-03-22 04:04:00,29.7,18.7,29.54,North,4,0.0,3.0,63,0.00,,---,0.00,VWS V14.00,2013-03-22 08:04:00,
2013-03-22 04:09:00,29.7,18.3,29.54,North,353,0.0,3.0,62,0.00,,---,0.00,VWS V14.00,2013-03-22 08:09:00,
2013-03-22 04:14:00,29.7,19.0,29.54,NW,316,0.0,3.0,64,0.00,,---,0.00,VWS V14.00,2013-03-22 08:14:00,